Terminal Aerodrome Forecast
Issued by NWS Cleveland, OH

Home | Current Version | Previous Version | Graphics & Text | Print | Product List | Glossary On
Versions: 1 2 3 4 5 6 7 8 9 10 11 12 13 14 15 16 17 18 19 20 21 22 23 24 25 26 27 28 29 30 31 32 33 34 35 36 37
207
FTUS41 KCLE 080339 AAA
TAFCLE
TAF AMD
KCLE 080339Z 0804/0906 20010KT P6SM SCT040 OVC080
     FM080700 20008KT P6SM OVC045
     FM081200 20006KT 3SM -RASN BR OVC012
     FM081600 28008KT 2SM -SN BR OVC008=

USA.gov is the U.S. government's official web portal to all federal, state and local government web resources and services.